createdAt,value
2022-11-04T00:01:44.513Z,10.85
2022-11-04T00:04:14.623Z,9.73
2022-11-04T00:06:42.179Z,10.40
2022-11-04T00:09:13.104Z,10.45
2022-11-04T00:11:59.093Z,8.88
2022-11-04T00:14:28.324Z,9.73
2022-11-04T00:17:14.161Z,8.38
2022-11-04T00:20:00.227Z,7.88
2022-11-04T00:22:46.185Z,8.67
2022-11-04T00:25:32.809Z,9.38
2022-11-04T00:28:32.057Z,8.85
2022-11-04T00:31:21.113Z,7.13
2022-11-04T00:33:49.809Z,6.38
2022-11-04T00:36:17.583Z,6.18
2022-11-04T00:38:45.258Z,6.15
2022-11-04T00:41:28.133Z,5.80
2022-11-04T00:43:57.369Z,4.28
2022-11-04T00:46:25.377Z,5.63
2022-11-04T00:48:52.730Z,5.70
2022-11-04T00:51:21.534Z,5.35
2022-11-04T00:53:49.191Z,5.60
2022-11-04T00:56:16.929Z,5.35
2022-11-04T00:58:44.288Z,6.28
2022-11-04T01:01:17.705Z,5.05
2022-11-04T01:03:46.901Z,5.88
2022-11-04T01:06:14.393Z,5.45
2022-11-04T01:08:42.069Z,5.55
2022-11-04T01:11:10.431Z,5.13
2022-11-04T01:13:38.451Z,4.55
2022-11-04T01:16:11.275Z,5.00
2022-11-04T01:18:39.856Z,5.65
2022-11-04T01:21:08.969Z,4.50
2022-11-04T01:23:36.564Z,5.65
2022-11-04T01:26:07.988Z,5.00
2022-11-04T01:28:35.770Z,4.65
2022-11-04T01:31:18.428Z,4.55
2022-11-04T01:33:45.656Z,5.07
2022-11-04T01:36:13.372Z,5.63
2022-11-04T01:38:41.068Z,5.43
2022-11-04T01:41:09.895Z,6.50
2022-11-04T01:43:58.462Z,6.57
2022-11-04T01:46:47.840Z,7.45
2022-11-04T01:49:40.731Z,6.13
2022-11-04T01:52:15.860Z,7.93
2022-11-04T01:54:47.942Z,9.63
2022-11-04T01:57:20.127Z,7.72
2022-11-04T01:59:47.737Z,9.40
2022-11-04T02:02:15.164Z,8.90
2022-11-04T02:04:44.169Z,11.23
2022-11-04T02:07:12.327Z,11.23
2022-11-04T02:09:41.501Z,10.27
2022-11-04T02:12:27.465Z,11.63
2022-11-04T02:14:55.976Z,11.60
2022-11-04T02:18:06.267Z,12.27
2022-11-04T02:21:01.371Z,14.18
2022-11-04T02:23:47.199Z,14.73
2022-11-04T02:26:17.700Z,13.82
2022-11-04T02:29:42.973Z,14.25
2022-11-04T02:32:13.213Z,12.32
2022-11-04T02:34:56.445Z,13.90
2022-11-04T02:37:23.900Z,13.27
2022-11-04T02:40:16.600Z,13.57
2022-11-04T02:42:56.956Z,13.48
2022-11-04T02:45:45.776Z,13.10
2022-11-04T02:48:20.577Z,11.38
2022-11-04T02:50:54.510Z,13.32
2022-11-04T02:53:29.696Z,13.27
2022-11-04T02:55:58.777Z,13.23
2022-11-04T02:58:31.367Z,13.40
2022-11-04T03:01:01.347Z,11.57
2022-11-04T03:03:39.841Z,13.73
2022-11-04T03:06:10.524Z,12.48
2022-11-04T03:08:44.184Z,10.50
2022-11-04T03:11:24.548Z,11.73
2022-11-04T03:13:59.081Z,12.65
2022-11-04T03:16:39.915Z,14.25
2022-11-04T03:19:16.491Z,13.45
2022-11-04T03:21:54.704Z,13.20
2022-11-04T03:24:22.156Z,13.00
2022-11-04T03:27:12.785Z,11.57
2022-11-04T03:30:02.910Z,10.85
2022-11-04T03:32:56.927Z,11.45
2022-11-04T03:35:25.651Z,12.70
2022-11-04T03:37:53.277Z,10.65
2022-11-04T03:40:22.028Z,10.20
2022-11-04T03:42:57.211Z,10.45
2022-11-04T03:45:25.492Z,8.43
2022-11-04T03:47:53.387Z,8.63
2022-11-04T03:50:28.108Z,6.25
2022-11-04T03:52:57.062Z,6.70
2022-11-04T03:55:37.562Z,5.85
2022-11-04T03:58:12.859Z,6.18
2022-11-04T04:00:47.852Z,5.80
2022-11-04T04:03:40.048Z,5.07
2022-11-04T04:06:17.579Z,4.22
2022-11-04T04:08:55.669Z,4.68
2022-11-04T04:11:37.608Z,4.85
2022-11-04T04:14:41.723Z,5.00
2022-11-04T04:17:19.970Z,5.78
2022-11-04T04:19:58.613Z,5.05
2022-11-04T04:22:31.686Z,6.57
2022-11-04T04:25:21.064Z,4.97
2022-11-04T04:27:50.448Z,5.28
2022-11-04T04:30:18.127Z,7.28
2022-11-04T04:32:53.426Z,5.53
2022-11-04T04:35:43.579Z,6.53
2022-11-04T04:38:43.275Z,5.40
2022-11-04T04:41:39.313Z,5.70
2022-11-04T04:44:41.876Z,6.78
2022-11-04T04:47:10.835Z,6.57
2022-11-04T04:49:49.182Z,6.80
2022-11-04T04:52:16.412Z,14.57
2022-11-04T04:54:45.074Z,8.95
2022-11-04T04:57:12.552Z,11.40
2022-11-04T04:59:39.829Z,10.05
2022-11-04T05:02:07.314Z,7.68
2022-11-04T05:04:34.651Z,7.85
2022-11-04T05:07:02.111Z,8.32
2022-11-04T05:09:29.356Z,9.27
2022-11-04T05:11:56.739Z,8.88
2022-11-04T05:14:24.014Z,9.02
2022-11-04T05:16:51.450Z,9.32
2022-11-04T05:19:18.742Z,10.30
2022-11-04T05:21:46.031Z,9.93
2022-11-04T05:24:13.318Z,10.90
2022-11-04T05:26:40.981Z,11.23
2022-11-04T05:29:09.482Z,10.85
2022-11-04T05:31:36.742Z,12.57
2022-11-04T05:34:05.964Z,12.73
2022-11-04T05:36:33.533Z,12.75
2022-11-04T05:39:00.866Z,11.32
2022-11-04T05:41:28.258Z,12.00
2022-11-04T05:43:59.352Z,12.07
2022-11-04T05:46:27.702Z,10.88
2022-11-04T05:48:55.424Z,10.60
2022-11-04T05:51:26.366Z,10.75
2022-11-04T05:53:53.843Z,10.88
2022-11-04T05:56:21.314Z,11.10
2022-11-04T05:58:48.715Z,11.38
2022-11-04T06:01:25.063Z,11.93
2022-11-04T06:03:53.133Z,11.35
2022-11-04T06:06:21.768Z,9.60
2022-11-04T06:08:50.303Z,11.35
2022-11-04T06:11:19.200Z,9.30
2022-11-04T06:13:46.533Z,10.13
2022-11-04T06:16:14.395Z,9.25
2022-11-04T06:18:41.868Z,10.45
2022-11-04T06:21:10.823Z,10.40
2022-11-04T06:23:38.064Z,9.30
2022-11-04T06:26:06.585Z,9.00
2022-11-04T06:28:34.820Z,7.63
2022-11-04T06:31:04.671Z,7.88
2022-11-04T06:33:36.742Z,9.27
2022-11-04T06:36:07.555Z,9.23
2022-11-04T06:38:37.043Z,7.80
2022-11-04T06:43:33.572Z,8.25
2022-11-04T06:46:02.893Z,9.20
2022-11-04T06:48:30.864Z,9.32
2022-11-04T06:50:59.719Z,9.88
2022-11-04T06:53:27.736Z,8.95
2022-11-04T06:56:03.087Z,9.88
2022-11-04T06:58:30.408Z,9.55
2022-11-04T07:00:57.929Z,9.30
2022-11-04T07:03:25.210Z,9.18
2022-11-04T07:05:52.607Z,9.18
2022-11-04T07:08:20.184Z,8.55
2022-11-04T07:10:47.626Z,9.27
2022-11-04T07:13:16.680Z,11.20
2022-11-04T07:15:44.050Z,10.43
2022-11-04T07:18:11.537Z,10.43
2022-11-04T07:20:40.111Z,12.18
2022-11-04T07:23:07.605Z,12.25
2022-11-04T07:25:34.839Z,9.73
2022-11-04T07:28:02.618Z,9.77
2022-11-04T07:30:30.059Z,9.77
2022-11-04T07:32:57.437Z,9.98
2022-11-04T07:35:25.346Z,10.25
2022-11-04T07:37:52.568Z,9.88
2022-11-04T07:40:19.804Z,9.38
2022-11-04T07:42:47.095Z,11.13
2022-11-04T07:45:14.689Z,9.82
2022-11-04T07:47:41.937Z,10.05
2022-11-04T07:50:11.254Z,10.43
2022-11-04T07:52:38.938Z,11.15
2022-11-04T07:55:06.468Z,11.15
2022-11-04T07:57:33.731Z,11.18
2022-11-04T08:00:01.134Z,11.00
2022-11-04T08:02:33.924Z,12.27
2022-11-04T08:05:02.484Z,11.32
2022-11-04T08:07:29.760Z,11.13
2022-11-04T08:09:56.993Z,13.70
2022-11-04T08:12:24.473Z,10.88
2022-11-04T08:14:51.734Z,11.68
2022-11-04T08:17:18.970Z,13.95
2022-11-04T08:19:46.221Z,14.35
2022-11-04T08:22:13.469Z,14.05
2022-11-04T08:24:40.763Z,14.20
2022-11-04T08:27:08.564Z,13.30
2022-11-04T08:29:36.420Z,12.60
2022-11-04T08:32:03.845Z,12.48
2022-11-04T08:34:31.737Z,10.20
2022-11-04T08:37:00.325Z,10.30
2022-11-04T08:39:27.653Z,9.93
2022-11-04T08:41:55.040Z,8.57
2022-11-04T08:44:22.456Z,9.90
2022-11-04T08:46:50.137Z,9.35
2022-11-04T08:49:21.005Z,8.77
2022-11-04T08:51:56.335Z,9.23
2022-11-04T08:54:25.029Z,9.13
2022-11-04T08:56:52.457Z,8.35
2022-11-04T08:59:19.826Z,8.15
2022-11-04T09:01:47.283Z,8.52
2022-11-04T09:04:14.796Z,7.68
2022-11-04T09:06:44.950Z,7.95
2022-11-04T09:09:14.779Z,6.90
2022-11-04T09:11:43.898Z,7.30
2022-11-04T09:14:12.355Z,7.00
2022-11-04T09:16:41.648Z,7.43
2022-11-04T09:19:09.348Z,7.25
2022-11-04T09:21:37.109Z,6.90
2022-11-04T09:24:05.595Z,7.13
2022-11-04T09:26:33.066Z,7.10
2022-11-04T09:29:00.628Z,6.72
2022-11-04T09:31:30.837Z,7.13
2022-11-04T09:33:58.624Z,6.32
2022-11-04T09:36:26.587Z,6.70
2022-11-04T09:38:53.995Z,6.07
2022-11-04T09:41:46.190Z,6.68
2022-11-04T09:44:27.383Z,5.70
2022-11-04T09:47:02.324Z,6.55
2022-11-04T09:49:35.540Z,6.40
2022-11-04T09:52:10.109Z,7.00
2022-11-04T09:55:09.450Z,5.90
2022-11-04T09:57:36.935Z,8.00
2022-11-04T10:00:08.353Z,6.20
2022-11-04T10:03:00.713Z,5.88
2022-11-04T10:05:56.774Z,6.35
2022-11-04T10:08:37.573Z,6.43
2022-11-04T10:11:24.140Z,5.95
2022-11-04T10:14:17.025Z,6.05
2022-11-04T10:16:53.339Z,6.47
2022-11-04T10:19:36.922Z,6.55
2022-11-04T10:22:04.742Z,6.30
2022-11-04T10:25:00.042Z,5.82
2022-11-04T10:27:32.167Z,5.45
2022-11-04T10:30:06.628Z,5.90
2022-11-04T10:32:40.500Z,5.55
2022-11-04T10:35:27.418Z,7.03
2022-11-04T10:40:32.878Z,5.60
2022-11-04T10:43:02.700Z,7.50
2022-11-04T10:45:37.084Z,5.63
2022-11-04T10:48:13.223Z,4.70
2022-11-04T10:50:59.369Z,5.25
2022-11-04T10:53:29.794Z,4.85
2022-11-04T10:56:19.546Z,5.00
2022-11-04T10:58:47.909Z,5.30
2022-11-04T11:01:28.257Z,5.90
2022-11-04T11:03:59.021Z,3.88
2022-11-04T11:06:32.337Z,6.05
2022-11-04T11:09:25.835Z,5.40
2022-11-04T11:12:01.057Z,4.45
2022-11-04T11:14:28.385Z,4.30
2022-11-04T11:16:58.312Z,5.85
2022-11-04T11:19:26.053Z,5.68
2022-11-04T11:21:55.817Z,5.25
2022-11-04T11:24:28.088Z,5.75
2022-11-04T11:26:58.771Z,4.75
2022-11-04T11:29:31.917Z,5.97
2022-11-04T11:32:00.901Z,6.88
2022-11-04T11:34:38.866Z,4.95
2022-11-04T11:37:22.051Z,4.53
2022-11-04T11:39:49.784Z,6.03
2022-11-04T11:42:20.533Z,6.53
2022-11-04T11:45:00.152Z,5.22
2022-11-04T11:47:28.305Z,6.00
2022-11-04T11:50:13.834Z,5.72
2022-11-04T11:52:43.333Z,4.30
2022-11-04T11:55:30.154Z,5.13
2022-11-04T12:01:21.997Z,5.22
2022-11-04T12:13:41.869Z,6.38
2022-11-04T12:16:40.885Z,4.85
2022-11-04T12:19:21.826Z,5.70
2022-11-04T12:22:26.932Z,5.45
2022-11-04T12:25:28.452Z,4.95
2022-11-04T12:28:28.853Z,4.45
2022-11-04T12:30:59.135Z,4.75
2022-11-04T12:33:39.796Z,4.22
2022-11-04T12:36:46.027Z,4.57
2022-11-04T12:39:56.392Z,4.57
2022-11-04T12:42:45.193Z,5.00
2022-11-04T12:45:46.071Z,4.32
2022-11-04T12:48:35.571Z,3.95
2022-11-04T12:51:10.758Z,4.60
2022-11-04T12:53:44.302Z,3.72
2022-11-04T12:56:14.573Z,4.03
2022-11-04T12:59:00.847Z,3.25
2022-11-04T13:01:56.206Z,3.83
2022-11-04T13:04:32.920Z,4.70
2022-11-04T13:07:29.367Z,3.42
2022-11-04T13:10:00.557Z,3.20
2022-11-04T13:12:34.142Z,3.15
2022-11-04T13:15:12.221Z,3.33
2022-11-04T13:17:42.053Z,4.15
2022-11-04T13:20:14.058Z,2.97
2022-11-04T13:22:47.195Z,2.35
2022-11-04T13:25:39.418Z,2.90
2022-11-04T13:28:13.461Z,2.25
2022-11-04T13:31:04.510Z,2.63
2022-11-04T13:33:50.629Z,2.35
2022-11-04T13:36:29.790Z,2.47
2022-11-04T13:39:00.895Z,1.65
2022-11-04T13:41:39.121Z,2.30
2022-11-04T13:44:22.068Z,2.33
2022-11-04T13:46:53.209Z,2.47
2022-11-04T13:49:33.636Z,2.05
2022-11-04T13:52:02.604Z,2.10
2022-11-04T13:54:39.388Z,2.63
2022-11-04T13:57:17.373Z,2.00
2022-11-04T14:00:13.436Z,1.90
2022-11-04T14:02:58.204Z,3.28
2022-11-04T14:05:32.218Z,1.85
2022-11-04T14:08:00.939Z,1.90
2022-11-04T14:10:49.017Z,2.28
2022-11-04T14:13:31.628Z,2.83
2022-11-04T14:16:05.924Z,1.80
2022-11-04T14:18:34.669Z,1.92
2022-11-04T14:21:15.181Z,1.95
2022-11-04T14:23:55.159Z,1.80
2022-11-04T14:26:27.961Z,2.25
2022-11-04T14:29:28.155Z,1.70
2022-11-04T14:31:57.957Z,2.08
2022-11-04T14:34:33.496Z,3.28
2022-11-04T14:37:20.169Z,2.03
2022-11-04T14:39:56.341Z,1.90
2022-11-04T14:42:59.289Z,2.00
2022-11-04T14:45:33.010Z,1.92
2022-11-04T14:48:19.446Z,2.00
2022-11-04T14:50:54.611Z,3.05
2022-11-04T14:53:33.841Z,2.30
2022-11-04T14:56:05.315Z,1.65
2022-11-04T14:58:32.673Z,2.30
2022-11-04T15:01:02.636Z,1.95
2022-11-04T15:06:40.335Z,2.30
2022-11-04T15:09:32.057Z,1.70
2022-11-04T15:12:37.988Z,2.20
2022-11-04T15:15:24.254Z,2.55
2022-11-04T15:17:51.922Z,2.30
2022-11-04T15:20:25.930Z,2.55
2022-11-04T15:22:55.657Z,2.00
2022-11-04T15:25:23.189Z,2.08
2022-11-04T15:27:50.681Z,2.47
2022-11-04T15:30:29.945Z,2.40
2022-11-04T15:33:03.173Z,2.80
2022-11-04T15:35:33.182Z,2.53
2022-11-04T15:38:01.709Z,1.73
2022-11-04T15:40:32.310Z,1.90
2022-11-04T15:43:03.637Z,2.53
2022-11-04T15:45:55.799Z,2.22
2022-11-04T15:48:23.016Z,2.42
2022-11-04T15:51:02.708Z,2.70
2022-11-04T15:53:30.666Z,2.35
2022-11-04T15:55:58.784Z,2.53
2022-11-04T15:58:26.338Z,2.30
2022-11-04T16:00:55.982Z,2.10
2022-11-04T16:03:24.624Z,2.55
2022-11-04T16:06:04.630Z,3.30
2022-11-04T16:08:34.019Z,2.40
2022-11-04T16:11:12.922Z,2.40
2022-11-04T16:13:41.149Z,2.35
2022-11-04T16:16:18.310Z,2.00
2022-11-04T16:18:54.461Z,2.95
2022-11-04T16:21:30.693Z,1.90
2022-11-04T16:24:08.841Z,1.95
2022-11-04T16:26:44.557Z,2.05
2022-11-04T16:29:32.959Z,1.80
2022-11-04T16:32:15.909Z,1.80
2022-11-04T16:34:44.770Z,1.95
2022-11-04T16:37:13.460Z,1.48
2022-11-04T16:39:43.194Z,1.90
2022-11-04T16:42:16.009Z,2.33
2022-11-04T16:44:48.855Z,1.77
2022-11-04T16:47:17.094Z,1.95
2022-11-04T16:49:44.805Z,2.08
2022-11-04T16:52:18.587Z,1.95
2022-11-04T16:54:48.491Z,1.65
2022-11-04T16:57:16.018Z,2.20
2022-11-04T16:59:44.359Z,2.10
2022-11-04T17:02:19.065Z,1.27
2022-11-04T17:04:46.889Z,1.60
2022-11-04T17:07:14.172Z,1.73
2022-11-04T17:09:41.501Z,2.05
2022-11-04T17:12:10.000Z,2.10
2022-11-04T17:14:37.262Z,1.92
2022-11-04T17:17:05.466Z,2.65
2022-11-04T17:19:34.706Z,2.13
2022-11-04T17:22:05.305Z,1.90
2022-11-04T17:24:32.990Z,2.33
2022-11-04T17:27:00.397Z,2.30
2022-11-04T17:29:27.889Z,2.42
2022-11-04T17:31:55.969Z,2.33
2022-11-04T17:34:26.035Z,1.98
2022-11-04T17:36:53.885Z,2.00
2022-11-04T17:39:21.787Z,2.25
2022-11-04T17:42:07.884Z,3.38
2022-11-04T17:44:35.128Z,2.73
2022-11-04T17:47:02.602Z,2.40
2022-11-04T17:49:30.747Z,2.47
2022-11-04T17:52:00.697Z,2.45
2022-11-04T17:54:30.286Z,3.63
2022-11-04T17:56:58.588Z,2.80
2022-11-04T17:59:26.091Z,2.88
2022-11-04T18:01:53.712Z,3.10
2022-11-04T18:04:22.947Z,5.40
2022-11-04T18:06:51.151Z,3.38
2022-11-04T18:09:19.023Z,3.85
2022-11-04T18:12:05.808Z,2.70
2022-11-04T18:14:33.241Z,3.95
2022-11-04T18:17:00.916Z,2.72
2022-11-04T18:19:28.416Z,3.10
2022-11-04T18:21:55.805Z,2.92
2022-11-04T18:24:24.167Z,3.13
2022-11-04T18:26:53.376Z,4.28
2022-11-04T18:29:21.234Z,4.13
2022-11-04T18:31:49.781Z,4.70
2022-11-04T18:34:19.586Z,4.85
2022-11-04T18:36:48.115Z,5.03
2022-11-04T18:39:18.263Z,5.82
2022-11-04T18:41:46.097Z,5.53
2022-11-04T18:44:18.785Z,4.75
2022-11-04T18:46:47.672Z,6.82
2022-11-04T18:49:16.854Z,5.47
2022-11-04T18:51:44.640Z,5.15
2022-11-04T18:54:13.335Z,5.43
2022-11-04T18:56:41.197Z,5.43
2022-11-04T18:59:14.585Z,4.95
2022-11-04T19:01:42.786Z,4.22
2022-11-04T19:04:10.181Z,5.05
2022-11-04T19:06:41.723Z,4.97
2022-11-04T19:12:17.690Z,6.18
2022-11-04T19:14:44.931Z,5.78
2022-11-04T19:17:12.143Z,6.07
2022-11-04T19:19:40.367Z,5.10
2022-11-04T19:22:07.638Z,5.88
2022-11-04T19:24:35.019Z,5.85
2022-11-04T19:27:02.339Z,7.35
2022-11-04T19:29:29.591Z,8.23
2022-11-04T19:31:56.882Z,8.07
2022-11-04T19:34:24.185Z,9.32
2022-11-04T19:36:51.611Z,9.52
2022-11-04T19:39:19.005Z,8.90
2022-11-04T19:42:04.987Z,10.27
2022-11-04T19:44:32.619Z,9.45
2022-11-04T19:46:59.883Z,8.23
2022-11-04T19:49:31.438Z,7.70
2022-11-04T19:51:59.371Z,7.70
2022-11-04T19:54:28.372Z,8.55
2022-11-04T19:56:55.920Z,10.10
2022-11-04T19:59:23.358Z,10.02
2022-11-04T20:01:51.001Z,14.80
2022-11-04T20:04:18.501Z,15.90
2022-11-04T20:06:45.966Z,18.35
2022-11-04T20:09:13.503Z,16.92
2022-11-04T20:12:00.346Z,16.30
2022-11-04T20:14:29.074Z,14.68
2022-11-04T20:16:56.424Z,13.20
2022-11-04T20:19:27.867Z,13.18
2022-11-04T20:21:55.383Z,15.48
2022-11-04T20:24:24.961Z,13.65
2022-11-04T20:26:52.347Z,14.00
2022-11-04T20:29:19.657Z,13.55
2022-11-04T20:31:47.021Z,13.48
2022-11-04T20:34:14.879Z,13.70
2022-11-04T20:36:42.426Z,13.10
2022-11-04T20:39:15.753Z,14.48
2022-11-04T20:41:44.314Z,15.43
2022-11-04T20:44:12.755Z,16.70
2022-11-04T20:46:40.884Z,14.35
2022-11-04T20:49:08.719Z,13.35
2022-11-04T20:51:42.226Z,13.90
2022-11-04T20:54:12.696Z,14.68
2022-11-04T20:56:41.736Z,15.82
2022-11-04T20:59:11.192Z,14.13
2022-11-04T21:01:40.680Z,16.95
2022-11-04T21:04:15.101Z,13.48
2022-11-04T21:06:42.956Z,14.63
2022-11-04T21:09:12.718Z,16.27
2022-11-04T21:11:40.721Z,15.85
2022-11-04T21:14:11.484Z,17.65
2022-11-04T21:16:38.999Z,16.23
2022-11-04T21:19:07.865Z,17.35
2022-11-04T21:21:35.268Z,18.83
2022-11-04T21:24:05.072Z,18.88
2022-11-04T21:26:34.843Z,18.58
2022-11-04T21:29:04.959Z,19.73
2022-11-04T21:31:34.526Z,22.55
2022-11-04T21:34:02.261Z,23.05
2022-11-04T21:36:29.781Z,19.20
2022-11-04T21:38:59.987Z,18.20
2022-11-04T21:41:30.453Z,18.42
2022-11-04T21:43:59.797Z,18.13
2022-11-04T21:46:28.752Z,16.10
2022-11-04T21:48:56.805Z,18.25
2022-11-04T21:51:28.926Z,20.20
2022-11-04T21:53:57.685Z,18.40
2022-11-04T21:56:27.719Z,18.58
2022-11-04T21:58:56.095Z,19.80
2022-11-04T22:01:26.743Z,20.13
2022-11-04T22:03:59.354Z,18.60
2022-11-04T22:06:34.704Z,18.45
2022-11-04T22:09:06.167Z,18.42
2022-11-04T22:11:36.607Z,18.13
2022-11-04T22:14:08.179Z,19.48
2022-11-04T22:16:37.844Z,22.40
2022-11-04T22:19:07.210Z,22.55
2022-11-04T22:21:34.698Z,22.70
2022-11-04T22:24:02.105Z,24.77
2022-11-04T22:26:31.872Z,24.83
2022-11-04T22:28:59.683Z,23.60
2022-11-04T22:31:29.642Z,24.23
2022-11-04T22:33:57.869Z,22.77
2022-11-04T22:36:26.043Z,24.92
2022-11-04T22:38:53.355Z,24.27
2022-11-04T22:41:26.447Z,23.42
2022-11-04T22:43:53.855Z,22.27
2022-11-04T22:46:25.280Z,23.25
2022-11-04T22:48:52.574Z,25.60
2022-11-04T22:51:21.246Z,25.38
2022-11-04T22:53:56.947Z,26.55
2022-11-04T22:56:26.599Z,24.35
2022-11-04T22:58:54.610Z,24.10
2022-11-04T23:01:22.877Z,22.10
2022-11-04T23:03:53.698Z,20.50
2022-11-04T23:06:21.227Z,20.95
2022-11-04T23:08:48.613Z,20.92
2022-11-04T23:11:40.976Z,21.98
2022-11-04T23:14:31.463Z,21.58
2022-11-04T23:17:18.192Z,20.13
2022-11-04T23:19:45.756Z,19.23
2022-11-04T23:22:31.755Z,20.17
2022-11-04T23:25:11.061Z,19.43
2022-11-04T23:28:02.357Z,20.70
2022-11-04T23:30:32.405Z,20.20
2022-11-04T23:33:02.302Z,22.55
2022-11-04T23:35:54.857Z,20.80
2022-11-04T23:38:22.789Z,19.58
2022-11-04T23:41:10.772Z,19.42
2022-11-04T23:43:38.532Z,20.33
2022-11-04T23:46:26.352Z,19.13
2022-11-04T23:49:13.924Z,19.70
2022-11-04T23:52:00.042Z,17.83
2022-11-04T23:54:46.157Z,19.50
2022-11-04T23:57:34.511Z,21.90
